Time;durP1;ratioP1;P1;durP2;ratioP2;P2;SDS_P1;SDS_P2;PMS_P1;PMS_P2;Temp;Humidity;BMP_temperature;BMP_pressure;BME280_temperature;BME280_humidity;BME280_pressure;Samples;Min_cycle;Max_cycle;Signal;HPM_P1;HPM_P2
2022/10/01 00:00:16;;;;;;;4.38;2.60;;;;;;;;;;4920415;29;20406;-79
2022/10/01 00:02:42;;;;;;;8.55;3.10;;;;;;;;;;4926270;29;20032;-79
2022/10/01 00:05:11;;;;;;;7.03;2.67;;;;;;;;;;4925389;29;20033;-77
2022/10/01 00:07:38;;;;;;;4.80;2.30;;;;;;;;;;4921295;29;20032;-77
2022/10/01 00:10:05;;;;;;;4.72;2.55;;;;;;;;;;4923440;29;20039;-78
2022/10/01 00:12:31;;;;;;;5.25;2.53;;;;;;;;;;4926112;29;20015;-77
2022/10/01 00:14:57;;;;;;;6.35;2.33;;;;;;;;;;4927964;29;20028;-77
2022/10/01 00:17:23;;;;;;;6.38;2.45;;;;;;;;;;4924199;29;20032;-77
2022/10/01 00:19:49;;;;;;;4.78;2.10;;;;;;;;;;4926190;29;20032;-79
2022/10/01 00:22:17;;;;;;;5.43;2.30;;;;;;;;;;4923859;29;20032;-78
2022/10/01 00:24:48;;;;;;;5.38;2.20;;;;;;;;;;4927746;29;20477;-79
2022/10/01 00:27:16;;;;;;;5.30;2.72;;;;;;;;;;4927957;29;20078;-77
2022/10/01 00:29:44;;;;;;;6.38;2.25;;;;;;;;;;4929784;29;20118;-78
2022/10/01 00:32:14;;;;;;;5.22;2.65;;;;;;;;;;4924925;29;20048;-79
2022/10/01 00:34:40;;;;;;;9.60;2.88;;;;;;;;;;4918953;29;20090;-78
2022/10/01 00:37:08;;;;;;;8.05;2.78;;;;;;;;;;4929862;29;20033;-77
2022/10/01 00:39:34;;;;;;;6.13;2.20;;;;;;;;;;4926415;29;20048;-78
2022/10/01 00:42:01;;;;;;;5.95;2.60;;;;;;;;;;4918785;29;20132;-79
2022/10/01 00:44:32;;;;;;;6.13;2.38;;;;;;;;;;4926530;29;20036;-77
2022/10/01 00:47:04;;;;;;;6.47;2.42;;;;;;;;;;4919624;29;20028;-79
2022/10/01 00:49:31;;;;;;;5.32;2.40;;;;;;;;;;4926977;29;20031;-79
2022/10/01 00:52:01;;;;;;;6.88;2.25;;;;;;;;;;4926746;29;20024;-79
2022/10/01 00:54:50;;;;;;;6.15;2.58;;;;;;;;;;4915008;29;20028;-77
2022/10/01 00:57:20;;;;;;;7.85;2.35;;;;;;;;;;4908704;29;20037;-78
2022/10/01 00:59:46;;;;;;;5.93;2.35;;;;;;;;;;4928028;29;20060;-79
2022/10/01 01:02:13;;;;;;;3.75;2.15;;;;;;;;;;4925730;29;20040;-79
2022/10/01 01:04:40;;;;;;;5.30;2.50;;;;;;;;;;4923698;29;20035;-77
2022/10/01 01:07:06;;;;;;;8.02;2.42;;;;;;;;;;4924187;29;20050;-79
2022/10/01 01:09:46;;;;;;;6.07;2.30;;;;;;;;;;4922348;29;20091;-79
2022/10/01 01:12:31;;;;;;;5.88;2.30;;;;;;;;;;4924494;29;20048;-78
2022/10/01 01:15:16;;;;;;;6.25;2.50;;;;;;;;;;4929585;29;20039;-79
2022/10/01 01:17:45;;;;;;;5.57;2.30;;;;;;;;;;4929724;29;20032;-78
2022/10/01 01:20:30;;;;;;;10.70;2.60;;;;;;;;;;4928881;29;20043;-80
2022/10/01 01:23:09;;;;;;;5.43;2.00;;;;;;;;;;4925223;29;20046;-78
2022/10/01 01:26:02;;;;;;;3.45;2.13;;;;;;;;;;4927406;29;20128;-77
2022/10/01 01:28:43;;;;;;;9.63;2.92;;;;;;;;;;4923787;29;20084;-80
2022/10/01 01:31:14;;;;;;;5.32;2.30;;;;;;;;;;4908873;29;20117;-78
2022/10/01 01:33:42;;;;;;;8.13;2.67;;;;;;;;;;4912810;29;20028;-76
2022/10/01 01:36:15;;;;;;;7.07;2.88;;;;;;;;;;4924520;29;20028;-79
2022/10/01 01:38:47;;;;;;;7.77;2.57;;;;;;;;;;4904483;29;20045;-77
2022/10/01 01:41:15;;;;;;;3.85;2.38;;;;;;;;;;4920633;29;20027;-77
2022/10/01 01:43:45;;;;;;;15.02;3.33;;;;;;;;;;4907003;29;20077;-79
2022/10/01 01:46:12;;;;;;;7.00;2.65;;;;;;;;;;4921450;29;20012;-78
2022/10/01 01:48:40;;;;;;;8.20;3.10;;;;;;;;;;4934114;29;20032;-78
2022/10/01 01:51:09;;;;;;;7.13;2.70;;;;;;;;;;4928739;29;20032;-77
2022/10/01 01:53:35;;;;;;;4.70;2.30;;;;;;;;;;4926354;29;20375;-77
2022/10/01 01:56:01;;;;;;;7.28;2.40;;;;;;;;;;4902871;29;20084;-77
2022/10/01 01:58:29;;;;;;;9.68;2.75;;;;;;;;;;4925252;29;20084;-77
2022/10/01 02:00:55;;;;;;;6.57;2.30;;;;;;;;;;4926519;29;20478;-77
2022/10/01 02:03:23;;;;;;;4.70;2.47;;;;;;;;;;4926286;29;20025;-77
2022/10/01 02:05:58;;;;;;;4.95;2.45;;;;;;;;;;4925353;29;20032;-77
2022/10/01 02:08:42;;;;;;;5.05;2.60;;;;;;;;;;4919794;29;20070;-77
2022/10/01 02:11:38;;;;;;;6.13;2.58;;;;;;;;;;4918828;29;20485;-78
2022/10/01 02:14:08;;;;;;;5.38;2.50;;;;;;;;;;4927320;29;20047;-78
2022/10/01 02:16:47;;;;;;;6.22;3.30;;;;;;;;;;4929203;29;20028;-78
2022/10/01 02:19:36;;;;;;;5.95;2.72;;;;;;;;;;4925073;29;20035;-77
2022/10/01 02:22:11;;;;;;;7.28;2.50;;;;;;;;;;4928479;29;20040;-78
2022/10/01 02:24:40;;;;;;;6.03;2.85;;;;;;;;;;4929222;29;20092;-77
2022/10/01 02:27:34;;;;;;;5.30;2.70;;;;;;;;;;4926900;29;20399;-77
2022/10/01 02:30:03;;;;;;;5.63;2.65;;;;;;;;;;4921142;29;20072;-77
2022/10/01 02:32:29;;;;;;;6.15;2.75;;;;;;;;;;4928127;29;20174;-77
2022/10/01 02:34:56;;;;;;;4.28;2.58;;;;;;;;;;4925981;29;20032;-77
2022/10/01 02:37:24;;;;;;;4.90;2.50;;;;;;;;;;4926631;29;21851;-76
2022/10/01 02:40:00;;;;;;;4.43;2.40;;;;;;;;;;4919863;29;20028;-77
2022/10/01 02:42:27;;;;;;;7.22;3.03;;;;;;;;;;4930502;29;20036;-77
2022/10/01 02:44:55;;;;;;;6.43;2.70;;;;;;;;;;4925401;29;20050;-78
2022/10/01 02:47:23;;;;;;;6.10;2.60;;;;;;;;;;4920249;29;20028;-76
2022/10/01 02:49:50;;;;;;;7.53;2.80;;;;;;;;;;4930224;29;20024;-78
2022/10/01 02:52:30;;;;;;;9.60;2.60;;;;;;;;;;4929198;29;20012;-78
2022/10/01 02:55:02;;;;;;;5.50;2.40;;;;;;;;;;4930455;29;20028;-77
2022/10/01 02:57:28;;;;;;;6.47;2.72;;;;;;;;;;4928040;29;20031;-80
2022/10/01 02:59:58;;;;;;;5.32;2.60;;;;;;;;;;4928593;29;20485;-77
2022/10/01 03:02:26;;;;;;;10.48;2.70;;;;;;;;;;4921333;29;20499;-76
2022/10/01 03:04:56;;;;;;;8.10;2.90;;;;;;;;;;4925022;29;20031;-77
2022/10/01 03:07:23;;;;;;;7.40;2.67;;;;;;;;;;4928386;29;20040;-76
2022/10/01 03:09:49;;;;;;;6.70;2.65;;;;;;;;;;4922843;29;20028;-77
2022/10/01 03:12:17;;;;;;;4.88;2.38;;;;;;;;;;4927892;29;20084;-77
2022/10/01 03:14:44;;;;;;;5.50;2.38;;;;;;;;;;4925461;29;20028;-76
2022/10/01 03:17:10;;;;;;;6.95;2.67;;;;;;;;;;4920080;29;20028;-77
2022/10/01 03:19:36;;;;;;;9.25;3.10;;;;;;;;;;4931014;29;20036;-77
2022/10/01 03:22:03;;;;;;;8.43;2.85;;;;;;;;;;4928848;29;20056;-79
2022/10/01 03:24:29;;;;;;;5.10;2.90;;;;;;;;;;4934352;29;20059;-77
2022/10/01 03:26:56;;;;;;;6.97;2.80;;;;;;;;;;4929057;29;20019;-77
2022/10/01 03:29:24;;;;;;;4.65;2.50;;;;;;;;;;4938292;29;20048;-77
2022/10/01 03:31:50;;;;;;;7.25;2.50;;;;;;;;;;4926204;29;20020;-76
2022/10/01 03:34:18;;;;;;;9.40;2.65;;;;;;;;;;4920459;29;20498;-78
2022/10/01 03:36:44;;;;;;;5.95;2.60;;;;;;;;;;4933141;29;20035;-76
2022/10/01 03:39:10;;;;;;;7.00;2.55;;;;;;;;;;4921783;29;20390;-76
2022/10/01 03:41:36;;;;;;;5.47;2.67;;;;;;;;;;4927127;29;20040;-76
2022/10/01 03:44:03;;;;;;;7.35;2.97;;;;;;;;;;4933901;29;20040;-76
2022/10/01 03:46:29;;;;;;;8.43;2.70;;;;;;;;;;4936845;29;20053;-76
2022/10/01 03:48:58;;;;;;;5.30;2.72;;;;;;;;;;4936121;29;20028;-80
2022/10/01 03:51:24;;;;;;;4.55;2.35;;;;;;;;;;4914579;29;20040;-77
2022/10/01 03:53:50;;;;;;;4.35;2.20;;;;;;;;;;4927870;29;20028;-79
2022/10/01 03:56:17;;;;;;;6.10;2.28;;;;;;;;;;4943785;29;20031;-77
2022/10/01 03:59:00;;;;;;;6.15;2.40;;;;;;;;;;4954305;29;20096;-78
2022/10/01 04:01:26;;;;;;;7.03;2.55;;;;;;;;;;4924244;29;20080;-78
2022/10/01 04:03:53;;;;;;;4.43;2.22;;;;;;;;;;4918659;29;20032;-79
2022/10/01 04:06:20;;;;;;;5.15;2.67;;;;;;;;;;4924122;29;20382;-79
2022/10/01 04:08:46;;;;;;;5.63;2.60;;;;;;;;;;4934177;29;20032;-81
2022/10/01 04:11:12;;;;;;;5.68;2.30;;;;;;;;;;4935452;29;20034;-77
2022/10/01 04:13:38;;;;;;;7.22;2.70;;;;;;;;;;4924991;29;20037;-76
2022/10/01 04:16:05;;;;;;;6.25;2.45;;;;;;;;;;4921612;29;20033;-77
2022/10/01 04:18:32;;;;;;;5.30;2.90;;;;;;;;;;4932514;29;20051;-76
2022/10/01 04:20:59;;;;;;;5.57;2.55;;;;;;;;;;4936128;29;20043;-77
2022/10/01 04:23:26;;;;;;;6.80;2.50;;;;;;;;;;4925390;29;20104;-78
2022/10/01 04:25:52;;;;;;;8.35;2.92;;;;;;;;;;4915326;29;20036;-77
2022/10/01 04:28:21;;;;;;;8.77;2.80;;;;;;;;;;4919558;29;20063;-78
2022/10/01 04:30:47;;;;;;;8.85;2.80;;;;;;;;;;4917189;29;20109;-77
2022/10/01 04:33:17;;;;;;;7.63;2.75;;;;;;;;;;4906496;29;20025;-78
2022/10/01 04:35:52;;;;;;;9.00;2.90;;;;;;;;;;4915508;29;20013;-78
2022/10/01 04:38:18;;;;;;;7.00;2.80;;;;;;;;;;4911091;29;20016;-77
2022/10/01 04:40:46;;;;;;;6.78;2.90;;;;;;;;;;4909814;29;20047;-77
2022/10/01 04:43:12;;;;;;;9.63;2.53;;;;;;;;;;4909937;29;20035;-77
2022/10/01 04:45:40;;;;;;;6.22;2.65;;;;;;;;;;4893868;29;20175;-77
2022/10/01 04:48:07;;;;;;;6.57;2.85;;;;;;;;;;4904862;29;20028;-76
2022/10/01 04:50:35;;;;;;;7.88;3.33;;;;;;;;;;4908509;29;20032;-78
2022/10/01 04:53:01;;;;;;;9.20;2.88;;;;;;;;;;4904942;29;20059;-77
2022/10/01 04:55:27;;;;;;;7.35;2.75;;;;;;;;;;4902192;29;20021;-76
2022/10/01 04:57:53;;;;;;;6.97;3.10;;;;;;;;;;4875468;29;20052;-77
2022/10/01 05:00:24;;;;;;;5.97;2.40;;;;;;;;;;4908677;29;20032;-78
2022/10/01 05:02:57;;;;;;;7.32;3.00;;;;;;;;;;4905427;29;20096;-78
2022/10/01 05:05:26;;;;;;;9.15;3.75;;;;;;;;;;4906531;29;20123;-78
2022/10/01 05:07:52;;;;;;;9.73;4.28;;;;;;;;;;4915297;29;20032;-77
2022/10/01 05:10:19;;;;;;;7.00;3.75;;;;;;;;;;4903045;29;20025;-78
2022/10/01 05:12:46;;;;;;;7.18;2.83;;;;;;;;;;4901255;29;20087;-77
2022/10/01 05:15:13;;;;;;;12.88;3.95;;;;;;;;;;4901146;29;20042;-78
2022/10/01 05:17:39;;;;;;;9.77;3.25;;;;;;;;;;4909037;29;20024;-76
2022/10/01 05:20:06;;;;;;;4.40;2.47;;;;;;;;;;4904378;29;20088;-77
2022/10/01 05:22:33;;;;;;;11.68;3.58;;;;;;;;;;4906028;29;20087;-76
2022/10/01 05:24:59;;;;;;;17.52;6.80;;;;;;;;;;4885711;29;20037;-77
2022/10/01 05:27:26;;;;;;;6.97;3.25;;;;;;;;;;4902631;29;20060;-77
2022/10/01 05:29:52;;;;;;;9.00;3.22;;;;;;;;;;4903409;29;20020;-77
2022/10/01 05:32:18;;;;;;;8.52;2.92;;;;;;;;;;4903496;29;20028;-76
2022/10/01 05:34:44;;;;;;;7.97;3.08;;;;;;;;;;4884394;29;20048;-78
2022/10/01 05:37:10;;;;;;;7.47;3.03;;;;;;;;;;4904214;29;20033;-77
2022/10/01 05:39:37;;;;;;;6.88;2.58;;;;;;;;;;4896941;29;20044;-77
2022/10/01 05:42:04;;;;;;;7.57;3.10;;;;;;;;;;4901075;29;20043;-77
2022/10/01 05:44:36;;;;;;;5.80;2.47;;;;;;;;;;4901838;29;20036;-77
2022/10/01 05:47:06;;;;;;;10.90;3.20;;;;;;;;;;4900579;29;20056;-77
2022/10/01 05:49:33;;;;;;;6.22;2.67;;;;;;;;;;4905688;29;20055;-78
2022/10/01 05:51:59;;;;;;;6.75;2.78;;;;;;;;;;4905112;29;20079;-78
2022/10/01 05:54:28;;;;;;;4.82;2.40;;;;;;;;;;4912154;29;20538;-78
2022/10/01 05:56:54;;;;;;;7.38;2.88;;;;;;;;;;4914305;29;20471;-78
2022/10/01 05:59:20;;;;;;;7.13;2.42;;;;;;;;;;4908638;29;20577;-78
2022/10/01 06:01:46;;;;;;;10.45;3.25;;;;;;;;;;4905198;29;20041;-77
2022/10/01 06:04:13;;;;;;;8.10;2.92;;;;;;;;;;4892008;29;20024;-79
2022/10/01 06:06:40;;;;;;;9.00;2.70;;;;;;;;;;4912384;29;20057;-77
2022/10/01 06:09:06;;;;;;;7.20;2.90;;;;;;;;;;4887020;29;20460;-78
2022/10/01 06:11:35;;;;;;;8.77;3.35;;;;;;;;;;4889462;29;20067;-78
2022/10/01 06:14:01;;;;;;;13.90;4.38;;;;;;;;;;4885150;29;20045;-76
2022/10/01 06:16:27;;;;;;;12.98;4.05;;;;;;;;;;4902403;29;20039;-76
2022/10/01 06:18:56;;;;;;;10.60;3.50;;;;;;;;;;4913516;29;20056;-77
2022/10/01 06:21:23;;;;;;;8.88;3.47;;;;;;;;;;4906201;29;20048;-77
2022/10/01 06:23:49;;;;;;;7.93;3.40;;;;;;;;;;4904853;29;20145;-76
2022/10/01 06:26:16;;;;;;;9.77;3.30;;;;;;;;;;4906544;29;20036;-79
2022/10/01 06:28:42;;;;;;;10.35;3.00;;;;;;;;;;4902024;29;20056;-77
2022/10/01 06:31:09;;;;;;;10.05;2.92;;;;;;;;;;4911202;29;20037;-77
2022/10/01 06:33:39;;;;;;;8.25;2.70;;;;;;;;;;4892892;29;20033;-77
2022/10/01 06:36:06;;;;;;;6.60;2.60;;;;;;;;;;4908508;29;20029;-77
2022/10/01 06:38:33;;;;;;;8.55;2.80;;;;;;;;;;4907428;29;20029;-76
2022/10/01 06:41:00;;;;;;;13.32;3.70;;;;;;;;;;4907748;29;20040;-77
2022/10/01 06:43:27;;;;;;;6.80;2.90;;;;;;;;;;4901621;29;20056;-78
2022/10/01 06:45:55;;;;;;;6.10;2.90;;;;;;;;;;4904856;29;20044;-76
2022/10/01 06:48:21;;;;;;;7.38;2.78;;;;;;;;;;4910566;29;20051;-77
2022/10/01 06:50:51;;;;;;;8.40;3.13;;;;;;;;;;4880946;29;20108;-76
2022/10/01 06:53:17;;;;;;;7.97;3.00;;;;;;;;;;4904435;29;20056;-76
2022/10/01 06:55:44;;;;;;;7.40;2.88;;;;;;;;;;4906022;29;20032;-76
2022/10/01 06:58:15;;;;;;;7.60;3.10;;;;;;;;;;4918868;29;20042;-78
2022/10/01 07:00:42;;;;;;;8.50;3.13;;;;;;;;;;4903670;29;20036;-77
2022/10/01 07:03:31;;;;;;;9.55;3.47;;;;;;;;;;4896009;29;20060;-76
2022/10/01 07:06:16;;;;;;;10.82;3.05;;;;;;;;;;4907679;29;20040;-79
2022/10/01 07:08:42;;;;;;;11.27;4.03;;;;;;;;;;4915284;29;20071;-76
2022/10/01 07:11:08;;;;;;;10.80;4.13;;;;;;;;;;4907940;29;20041;-77
2022/10/01 07:13:37;;;;;;;10.45;4.50;;;;;;;;;;4894742;29;20443;-77
2022/10/01 07:16:03;;;;;;;19.80;4.50;;;;;;;;;;4906920;29;20455;-77
2022/10/01 07:18:30;;;;;;;7.43;3.00;;;;;;;;;;4912434;29;20084;-76
2022/10/01 07:20:57;;;;;;;9.25;3.40;;;;;;;;;;4902220;29;20047;-77
2022/10/01 07:23:23;;;;;;;9.18;2.97;;;;;;;;;;4909756;29;20039;-76
2022/10/01 07:25:53;;;;;;;5.68;2.72;;;;;;;;;;4907756;29;20056;-77
2022/10/01 07:28:19;;;;;;;10.27;2.80;;;;;;;;;;4911827;29;20052;-76
2022/10/01 07:30:47;;;;;;;8.65;3.55;;;;;;;;;;4913560;29;20462;-77
2022/10/01 07:33:14;;;;;;;9.73;2.90;;;;;;;;;;4911048;29;20073;-76
2022/10/01 07:35:40;;;;;;;6.07;3.47;;;;;;;;;;4892401;29;20032;-79
2022/10/01 07:38:07;;;;;;;11.63;3.63;;;;;;;;;;4908638;29;20418;-77
2022/10/01 07:40:34;;;;;;;6.63;3.15;;;;;;;;;;4916245;29;20092;-77
2022/10/01 07:43:00;;;;;;;7.25;3.00;;;;;;;;;;4906699;29;20029;-77
2022/10/01 07:45:26;;;;;;;7.15;3.28;;;;;;;;;;4909999;29;20043;-77
2022/10/01 07:48:03;;;;;;;5.93;3.28;;;;;;;;;;4907952;29;20039;-76
2022/10/01 07:50:29;;;;;;;8.68;3.03;;;;;;;;;;4920618;29;20055;-76
2022/10/01 07:52:56;;;;;;;6.78;3.78;;;;;;;;;;4913959;29;20068;-77
2022/10/01 07:55:29;;;;;;;6.97;3.83;;;;;;;;;;4907097;29;20028;-77
2022/10/01 07:57:56;;;;;;;9.73;3.22;;;;;;;;;;4890248;29;20077;-76
2022/10/01 08:00:29;;;;;;;7.70;3.75;;;;;;;;;;4907166;29;20115;-77
2022/10/01 08:02:59;;;;;;;10.27;4.72;;;;;;;;;;4901408;29;20033;-77
2022/10/01 08:05:38;;;;;;;7.53;4.13;;;;;;;;;;4901291;29;20037;-77
2022/10/01 08:08:06;;;;;;;9.45;4.32;;;;;;;;;;4911366;29;20024;-77
2022/10/01 08:10:35;;;;;;;10.35;4.82;;;;;;;;;;4897578;29;20055;-77
2022/10/01 08:13:07;;;;;;;15.15;4.78;;;;;;;;;;4908383;29;20029;-76
2022/10/01 08:15:35;;;;;;;15.55;5.32;;;;;;;;;;4904722;29;20056;-76
2022/10/01 08:18:02;;;;;;;12.65;4.28;;;;;;;;;;4914569;29;20107;-76
2022/10/01 08:20:29;;;;;;;10.07;3.25;;;;;;;;;;4906085;29;20075;-76
2022/10/01 08:23:00;;;;;;;9.82;3.70;;;;;;;;;;4902659;29;20368;-76
2022/10/01 08:25:28;;;;;;;12.93;3.70;;;;;;;;;;4902640;29;20071;-76
2022/10/01 08:27:54;;;;;;;8.90;3.50;;;;;;;;;;4906674;29;20053;-78
2022/10/01 08:30:20;;;;;;;11.35;4.05;;;;;;;;;;4905836;29;20032;-77
2022/10/01 08:32:48;;;;;;;11.50;3.45;;;;;;;;;;4901665;29;20098;-77
2022/10/01 08:35:14;;;;;;;10.73;3.60;;;;;;;;;;4904416;29;20025;-77
2022/10/01 08:37:41;;;;;;;10.35;3.60;;;;;;;;;;4907145;29;20100;-77
2022/10/01 08:40:09;;;;;;;10.13;3.38;;;;;;;;;;4918205;29;20050;-76
2022/10/01 08:42:41;;;;;;;9.02;3.30;;;;;;;;;;4912541;29;20059;-76
2022/10/01 08:45:26;;;;;;;12.93;3.80;;;;;;;;;;4905694;29;20025;-76
2022/10/01 08:47:55;;;;;;;9.00;3.80;;;;;;;;;;4903443;29;20021;-77
2022/10/01 08:50:40;;;;;;;13.18;4.55;;;;;;;;;;4915399;29;20453;-77
2022/10/01 08:53:12;;;;;;;9.98;4.28;;;;;;;;;;4902072;29;20147;-76
2022/10/01 08:55:41;;;;;;;9.23;4.30;;;;;;;;;;4901652;29;20063;-79
2022/10/01 08:58:12;;;;;;;22.23;5.70;;;;;;;;;;4877863;29;20049;-76
2022/10/01 09:00:44;;;;;;;11.95;4.18;;;;;;;;;;4910761;29;20052;-76
2022/10/01 09:03:12;;;;;;;8.53;3.80;;;;;;;;;;4897971;29;20509;-77
2022/10/01 09:05:52;;;;;;;9.38;3.90;;;;;;;;;;4887529;29;20451;-76
2022/10/01 09:08:18;;;;;;;7.68;4.22;;;;;;;;;;4896917;29;20028;-76
2022/10/01 09:10:51;;;;;;;8.95;3.70;;;;;;;;;;4917060;29;20036;-76
2022/10/01 09:13:36;;;;;;;11.47;3.43;;;;;;;;;;4915088;29;20032;-76
2022/10/01 09:16:12;;;;;;;7.60;3.80;;;;;;;;;;4889720;29;20033;-76
2022/10/01 09:19:01;;;;;;;6.43;3.47;;;;;;;;;;4910887;29;20445;-76
2022/10/01 09:21:34;;;;;;;8.48;3.53;;;;;;;;;;4843348;29;20049;-76
2022/10/01 09:24:04;;;;;;;8.77;3.53;;;;;;;;;;4822432;29;20137;-76
2022/10/01 09:26:33;;;;;;;9.80;4.35;;;;;;;;;;4841436;29;20114;-76
2022/10/01 09:29:02;;;;;;;10.88;3.97;;;;;;;;;;4865388;29;20093;-76
2022/10/01 09:31:33;;;;;;;11.55;3.40;;;;;;;;;;4862372;29;20069;-76
2022/10/01 09:34:03;;;;;;;14.50;4.72;;;;;;;;;;4864027;29;20037;-77
2022/10/01 09:36:40;;;;;;;9.55;4.22;;;;;;;;;;4853159;29;20027;-77
2022/10/01 09:39:09;;;;;;;16.70;4.30;;;;;;;;;;4863842;29;20041;-77
2022/10/01 09:41:35;;;;;;;7.25;3.30;;;;;;;;;;4861831;29;20118;-77
2022/10/01 09:44:01;;;;;;;11.90;4.18;;;;;;;;;;4858113;29;20030;-77
2022/10/01 09:46:27;;;;;;;8.27;3.28;;;;;;;;;;4859344;29;20491;-77
2022/10/01 09:49:01;;;;;;;7.05;3.00;;;;;;;;;;4853849;29;20034;-77
2022/10/01 09:51:27;;;;;;;10.85;3.10;;;;;;;;;;4860774;29;20041;-76
2022/10/01 09:53:56;;;;;;;6.38;3.30;;;;;;;;;;4859087;29;20029;-77
2022/10/01 09:56:25;;;;;;;5.93;3.10;;;;;;;;;;4856329;29;20033;-77
2022/10/01 09:58:55;;;;;;;7.43;3.03;;;;;;;;;;4894666;29;20048;-76
2022/10/01 10:01:30;;;;;;;6.05;2.90;;;;;;;;;;4893261;29;20051;-76
2022/10/01 10:04:00;;;;;;;6.20;3.03;;;;;;;;;;4905176;29;20107;-76
2022/10/01 10:06:27;;;;;;;5.88;3.13;;;;;;;;;;4917209;29;20016;-76
2022/10/01 10:08:56;;;;;;;9.30;3.03;;;;;;;;;;4896031;29;20427;-78
2022/10/01 10:11:27;;;;;;;7.55;3.20;;;;;;;;;;4908661;29;20016;-78
2022/10/01 10:14:13;;;;;;;8.18;3.47;;;;;;;;;;4912648;29;20607;-76
2022/10/01 10:16:45;;;;;;;7.68;3.50;;;;;;;;;;4897551;29;20051;-76
2022/10/01 10:19:40;;;;;;;7.78;3.13;;;;;;;;;;4899612;29;20120;-76
2022/10/01 10:22:10;;;;;;;8.40;3.50;;;;;;;;;;4898530;29;20049;-76
2022/10/01 10:24:37;;;;;;;5.90;2.85;;;;;;;;;;4908441;29;20043;-77
2022/10/01 10:27:05;;;;;;;9.55;3.30;;;;;;;;;;4904054;28;20053;-77
2022/10/01 10:29:32;;;;;;;8.77;3.50;;;;;;;;;;4922575;29;20060;-76
2022/10/01 10:31:59;;;;;;;6.13;2.85;;;;;;;;;;4917858;29;20028;-77
2022/10/01 10:34:26;;;;;;;9.27;3.13;;;;;;;;;;4912715;29;20059;-76
2022/10/01 10:36:59;;;;;;;8.95;3.35;;;;;;;;;;4902328;29;20016;-77
2022/10/01 10:39:28;;;;;;;6.13;2.83;;;;;;;;;;4903790;29;20040;-77
2022/10/01 10:41:58;;;;;;;8.50;3.08;;;;;;;;;;4919590;29;20052;-78
2022/10/01 10:44:29;;;;;;;6.68;3.50;;;;;;;;;;4916939;29;20044;-78
2022/10/01 10:46:59;;;;;;;8.85;3.67;;;;;;;;;;4890576;29;20028;-78
2022/10/01 10:49:35;;;;;;;9.70;3.92;;;;;;;;;;4894627;29;20047;-78
2022/10/01 10:52:03;;;;;;;9.77;3.42;;;;;;;;;;4894220;29;20111;-81
2022/10/01 10:54:36;;;;;;;8.48;3.80;;;;;;;;;;4895973;29;20064;-80
2022/10/01 10:57:26;;;;;;;10.63;3.88;;;;;;;;;;4893668;29;20047;-78
2022/10/01 10:59:59;;;;;;;8.30;4.03;;;;;;;;;;4919125;29;20067;-80
2022/10/01 11:02:31;;;;;;;10.57;3.92;;;;;;;;;;4902183;29;20053;-80
2022/10/01 11:05:21;;;;;;;8.40;3.42;;;;;;;;;;4910214;29;20025;-79
2022/10/01 11:07:53;;;;;;;11.40;4.10;;;;;;;;;;4862725;29;20044;-80
2022/10/01 11:10:28;;;;;;;10.07;4.25;;;;;;;;;;4861068;29;20034;-80
2022/10/01 11:13:13;;;;;;;9.52;3.92;;;;;;;;;;4860988;29;20077;-79
2022/10/01 11:16:08;;;;;;;9.57;4.40;;;;;;;;;;4847470;29;20049;-81
2022/10/01 11:18:57;;;;;;;9.68;4.18;;;;;;;;;;4865829;29;20071;-82
2022/10/01 11:21:55;;;;;;;8.40;3.88;;;;;;;;;;4866912;29;20167;-82
2022/10/01 11:24:41;;;;;;;9.13;3.92;;;;;;;;;;4827526;29;20082;-82
2022/10/01 11:27:21;;;;;;;8.30;3.35;;;;;;;;;;4821321;29;20050;-80
2022/10/01 11:30:35;;;;;;;7.47;3.70;;;;;;;;;;4815795;29;20073;-81
2022/10/01 11:33:43;;;;;;;9.63;4.10;;;;;;;;;;4824785;29;20033;-81
2022/10/01 11:36:29;;;;;;;7.72;3.70;;;;;;;;;;4824780;29;20068;-80
2022/10/01 11:38:59;;;;;;;10.63;5.18;;;;;;;;;;4822630;29;20051;-79
2022/10/01 11:41:30;;;;;;;6.82;4.20;;;;;;;;;;4823935;29;20095;-80
2022/10/01 11:44:21;;;;;;;13.55;7.18;;;;;;;;;;4825985;29;20534;-81
2022/10/01 11:47:10;;;;;;;13.52;7.78;;;;;;;;;;4822337;29;20027;-78
2022/10/01 11:49:42;;;;;;;15.30;8.38;;;;;;;;;;4788285;29;20074;-81
2022/10/01 11:52:14;;;;;;;13.57;7.68;;;;;;;;;;4758484;30;20021;-81
2022/10/01 11:54:47;;;;;;;12.27;6.70;;;;;;;;;;4772680;30;20044;-80
2022/10/01 12:00:03;;;;;;;16.65;9.30;;;;;;;;;;4782410;29;20046;-81
2022/10/01 12:03:19;;;;;;;15.82;9.32;;;;;;;;;;4773666;30;20048;-80
2022/10/01 12:05:48;;;;;;;14.45;6.40;;;;;;;;;;4768736;30;20059;-79
2022/10/01 12:08:20;;;;;;;12.80;4.78;;;;;;;;;;4775334;29;20116;-78
2022/10/01 12:11:00;;;;;;;9.27;4.10;;;;;;;;;;4842866;29;20085;-78
2022/10/01 12:13:35;;;;;;;7.38;4.13;;;;;;;;;;4841870;29;20046;-79
2022/10/01 12:16:15;;;;;;;7.65;4.32;;;;;;;;;;4834444;29;20088;-79
2022/10/01 12:18:47;;;;;;;9.75;4.55;;;;;;;;;;4834107;29;20042;-79
2022/10/01 12:21:23;;;;;;;12.65;4.95;;;;;;;;;;4820688;29;20057;-79
2022/10/01 12:23:54;;;;;;;15.25;4.07;;;;;;;;;;4819992;29;20546;-79
2022/10/01 12:26:29;;;;;;;8.48;4.28;;;;;;;;;;4864183;29;20045;-79
2022/10/01 12:29:05;;;;;;;9.23;4.22;;;;;;;;;;4894511;29;20052;-79
2022/10/01 12:31:56;;;;;;;9.70;3.75;;;;;;;;;;4908078;29;20043;-79
2022/10/01 12:34:42;;;;;;;7.90;4.20;;;;;;;;;;4901008;29;20065;-80
2022/10/01 12:37:15;;;;;;;8.38;4.00;;;;;;;;;;4919477;29;20032;-78
2022/10/01 12:39:41;;;;;;;12.52;4.18;;;;;;;;;;4914594;29;20032;-78
2022/10/01 12:42:34;;;;;;;7.40;3.65;;;;;;;;;;4908507;29;20131;-78
2022/10/01 12:45:21;;;;;;;8.45;3.40;;;;;;;;;;4849334;29;20113;-78
2022/10/01 12:47:50;;;;;;;12.48;4.10;;;;;;;;;;4848236;29;20094;-79
2022/10/01 12:50:24;;;;;;;10.52;3.70;;;;;;;;;;4834370;29;20042;-78
2022/10/01 12:53:22;;;;;;;9.00;4.20;;;;;;;;;;4848966;29;20034;-78
2022/10/01 12:56:15;;;;;;;8.15;3.80;;;;;;;;;;4816603;29;20046;-78
2022/10/01 12:59:05;;;;;;;12.52;4.50;;;;;;;;;;4837427;29;20030;-79
2022/10/01 13:01:43;;;;;;;11.18;4.20;;;;;;;;;;4829283;29;20136;-79
2022/10/01 13:04:30;;;;;;;9.63;4.10;;;;;;;;;;4826366;29;20070;-78
2022/10/01 13:07:15;;;;;;;17.63;3.97;;;;;;;;;;4790628;30;20413;-78
2022/10/01 13:10:05;;;;;;;12.30;4.18;;;;;;;;;;4786754;30;20027;-80
2022/10/01 13:12:45;;;;;;;8.10;3.70;;;;;;;;;;4783034;30;20068;-75
2022/10/01 13:15:17;;;;;;;17.35;6.82;;;;;;;;;;4794391;30;20109;-76
2022/10/01 13:17:49;;;;;;;17.95;11.73;;;;;;;;;;4801239;29;20047;-77
2022/10/01 13:20:39;;;;;;;9.85;3.50;;;;;;;;;;4802178;30;20047;-80
2022/10/01 13:23:24;;;;;;;11.02;3.50;;;;;;;;;;4820641;29;20118;-75
2022/10/01 13:26:07;;;;;;;13.43;4.43;;;;;;;;;;4850149;29;20062;-78
2022/10/01 13:28:37;;;;;;;13.18;5.10;;;;;;;;;;4837412;29;20050;-75
2022/10/01 13:31:13;;;;;;;9.35;4.93;;;;;;;;;;4844101;29;20504;-75
2022/10/01 13:33:40;;;;;;;9.25;4.60;;;;;;;;;;4844947;29;20105;-78
2022/10/01 13:36:07;;;;;;;22.13;7.72;;;;;;;;;;4849273;29;20398;-74
2022/10/01 13:38:42;;;;;;;11.52;5.30;;;;;;;;;;4846633;29;20080;-74
2022/10/01 13:43:56;;;;;;;5.43;3.67;;;;;;;;;;3755402;23;20060;-81
2022/10/01 13:46:52;;;;;;;12.80;5.68;;;;;;;;;;4905450;29;20029;-81
2022/10/01 13:49:29;;;;;;;9.10;4.85;;;;;;;;;;4885716;29;20048;-80
2022/10/01 13:51:55;;;;;;;8.10;4.43;;;;;;;;;;4910284;29;20187;-79
2022/10/01 13:54:42;;;;;;;10.73;4.57;;;;;;;;;;4904823;29;20024;-81
2022/10/01 13:57:29;;;;;;;7.40;4.10;;;;;;;;;;4915045;29;20031;-81
2022/10/01 14:00:23;;;;;;;10.00;4.30;;;;;;;;;;4893487;29;20072;-81
2022/10/01 14:03:16;;;;;;;7.80;4.75;;;;;;;;;;4906778;29;20063;-81
2022/10/01 14:05:42;;;;;;;8.95;5.10;;;;;;;;;;4905867;29;20040;-80
2022/10/01 14:08:13;;;;;;;9.07;4.80;;;;;;;;;;4901856;29;20025;-81
2022/10/01 14:16:25;;;;;;;8.45;5.78;;;;;;;;;;4921030;29;20044;-81
2022/10/01 14:18:52;;;;;;;9.23;5.57;;;;;;;;;;4899736;29;20114;-79
2022/10/01 14:21:40;;;;;;;11.43;5.80;;;;;;;;;;4919372;29;20040;-80
2022/10/01 14:24:25;;;;;;;9.80;5.95;;;;;;;;;;4897696;29;20045;-79
2022/10/01 14:27:02;;;;;;;11.02;6.20;;;;;;;;;;4878821;29;20475;-80
2022/10/01 14:29:28;;;;;;;12.38;6.43;;;;;;;;;;4915787;29;20029;-78
2022/10/01 14:32:02;;;;;;;13.23;5.75;;;;;;;;;;4891268;29;20049;-80
2022/10/01 14:34:28;;;;;;;9.98;5.55;;;;;;;;;;4913772;29;20044;-78
2022/10/01 14:36:55;;;;;;;8.90;5.80;;;;;;;;;;4900360;29;20037;-79
2022/10/01 14:39:22;;;;;;;10.07;5.90;;;;;;;;;;4892854;29;20066;-79
2022/10/01 14:41:49;;;;;;;9.50;5.28;;;;;;;;;;4883755;29;20044;-79
2022/10/01 14:44:37;;;;;;;12.60;5.85;;;;;;;;;;4887369;29;20065;-80
2022/10/01 14:47:12;;;;;;;10.95;5.68;;;;;;;;;;4864023;29;20025;-75
2022/10/01 14:49:38;;;;;;;13.73;5.95;;;;;;;;;;4868472;29;20037;-75
2022/10/01 14:52:06;;;;;;;11.10;5.90;;;;;;;;;;4858783;29;20530;-77
2022/10/01 14:54:42;;;;;;;9.63;6.32;;;;;;;;;;4867105;29;20037;-77
2022/10/01 14:57:10;;;;;;;10.27;6.57;;;;;;;;;;4857141;29;20029;-77
2022/10/01 14:59:37;;;;;;;6.70;5.32;;;;;;;;;;4850614;29;20526;-76
2022/10/01 15:02:10;;;;;;;7.43;5.25;;;;;;;;;;4867053;29;20373;-77
2022/10/01 15:04:36;;;;;;;;;;;;;;;;;;4874795;29;20078;-79
2022/10/01 15:07:09;;;;;;;8.93;5.47;;;;;;;;;;4888974;29;19922;-79
2022/10/01 15:09:36;;;;;;;8.70;5.10;;;;;;;;;;4880298;29;20058;-80
2022/10/01 15:12:04;;;;;;;15.52;5.70;;;;;;;;;;4883036;29;20034;-78
2022/10/01 15:14:31;;;;;;;9.80;5.72;;;;;;;;;;4858529;29;20037;-78
2022/10/01 15:17:02;;;;;;;9.77;6.40;;;;;;;;;;4865089;29;20041;-76
2022/10/01 15:19:28;;;;;;;11.90;6.20;;;;;;;;;;4851030;29;20092;-76